createdAt,value
2022-07-30T00:01:38.149Z,20.52
2022-07-30T00:04:09.997Z,20.50
2022-07-30T00:06:41.960Z,20.46
2022-07-30T00:09:13.911Z,20.47
2022-07-30T00:11:45.662Z,20.27
2022-07-30T00:14:18.201Z,20.30
2022-07-30T00:16:50.011Z,20.25
2022-07-30T00:19:21.874Z,20.29
2022-07-30T00:21:55.820Z,20.28
2022-07-30T00:24:27.929Z,20.20
2022-07-30T00:27:00.050Z,20.17
2022-07-30T00:29:32.086Z,20.09
2022-07-30T00:32:03.863Z,20.10
2022-07-30T00:34:35.684Z,20.11
2022-07-30T00:37:07.448Z,20.05
2022-07-30T00:39:39.128Z,20.11
2022-07-30T00:42:11.922Z,20.06
2022-07-30T00:44:44.681Z,19.98
2022-07-30T00:47:16.941Z,20.00
2022-07-30T00:49:48.946Z,20.03
2022-07-30T00:52:21.363Z,20.04
2022-07-30T00:54:53.074Z,20.01
2022-07-30T00:57:24.892Z,19.99
2022-07-30T00:59:58.586Z,19.99
2022-07-30T01:02:30.667Z,19.82
2022-07-30T01:05:02.652Z,19.79
2022-07-30T01:07:34.838Z,19.76
2022-07-30T01:10:08.737Z,19.80
2022-07-30T01:12:40.992Z,19.83
2022-07-30T01:15:14.280Z,19.83
2022-07-30T01:17:52.869Z,19.78
2022-07-30T01:20:28.165Z,19.59
2022-07-30T01:23:08.226Z,19.39
2022-07-30T01:25:49.843Z,19.49
2022-07-30T01:28:24.708Z,19.44
2022-07-30T01:30:58.120Z,19.57
2022-07-30T01:33:31.957Z,19.49
2022-07-30T01:36:09.523Z,19.27
2022-07-30T01:38:44.125Z,19.44
2022-07-30T01:41:19.215Z,19.43
2022-07-30T01:43:51.325Z,19.49
2022-07-30T01:46:28.178Z,19.35
2022-07-30T01:49:02.012Z,19.34
2022-07-30T01:51:38.886Z,19.26
2022-07-30T01:54:13.571Z,19.35
2022-07-30T01:56:47.091Z,19.37
2022-07-30T01:59:21.945Z,19.42
2022-07-30T02:01:53.717Z,19.43
2022-07-30T02:04:25.528Z,19.43
2022-07-30T02:07:04.299Z,19.41
2022-07-30T02:09:46.982Z,19.28
2022-07-30T02:12:30.340Z,19.22
2022-07-30T02:15:13.343Z,19.25
2022-07-30T02:17:51.905Z,19.21
2022-07-30T02:20:28.348Z,19.28
2022-07-30T02:23:03.738Z,19.16
2022-07-30T02:25:39.824Z,19.16
2022-07-30T02:28:14.328Z,19.12
2022-07-30T02:30:51.390Z,19.21
2022-07-30T02:33:28.601Z,19.22
2022-07-30T02:36:01.847Z,19.00
2022-07-30T02:38:35.728Z,19.05
2022-07-30T02:41:09.091Z,19.17
2022-07-30T02:43:44.361Z,19.18
2022-07-30T02:46:18.096Z,19.19
2022-07-30T02:49:19.744Z,19.21
2022-07-30T02:51:53.926Z,19.19
2022-07-30T02:54:31.311Z,19.09
2022-07-30T02:57:05.592Z,19.08
2022-07-30T02:59:40.466Z,19.09
2022-07-30T03:02:14.606Z,19.11
2022-07-30T03:04:49.141Z,19.12
2022-07-30T03:07:23.230Z,19.14
2022-07-30T03:09:57.803Z,19.13
2022-07-30T03:12:32.846Z,19.09
2022-07-30T03:15:05.335Z,19.07
2022-07-30T03:17:44.663Z,18.97
2022-07-30T03:20:21.350Z,18.92
2022-07-30T03:22:58.403Z,18.95
2022-07-30T03:25:31.949Z,19.03
2022-07-30T03:28:06.702Z,18.93
2022-07-30T03:30:39.530Z,18.93
2022-07-30T03:33:12.269Z,18.96
2022-07-30T03:35:45.614Z,18.92
2022-07-30T03:38:18.494Z,18.86
2022-07-30T03:40:51.288Z,18.88
2022-07-30T03:43:33.191Z,18.92
2022-07-30T03:46:07.802Z,18.99
2022-07-30T03:48:42.624Z,18.96
2022-07-30T03:51:17.909Z,18.94
2022-07-30T03:53:51.581Z,18.99
2022-07-30T03:56:42.099Z,19.00
2022-07-30T03:59:22.984Z,19.02
2022-07-30T04:01:55.040Z,19.00
2022-07-30T04:04:43.901Z,18.98
2022-07-30T04:07:15.656Z,19.04
2022-07-30T04:09:47.401Z,19.03
2022-07-30T04:12:34.020Z,18.98
2022-07-30T04:16:15.846Z,19.10
2022-07-30T04:18:04.532Z,19.12
2022-07-30T04:20:42.274Z,19.00
2022-07-30T04:23:15.393Z,19.05
2022-07-30T04:25:49.814Z,19.07
2022-07-30T04:28:22.387Z,19.11
2022-07-30T04:30:54.517Z,19.15
2022-07-30T04:33:26.484Z,19.26
2022-07-30T04:36:16.387Z,19.23
2022-07-30T04:38:48.419Z,19.21
2022-07-30T04:41:20.213Z,19.23
2022-07-30T04:44:10.737Z,19.12
2022-07-30T04:46:47.647Z,19.22
2022-07-30T04:49:21.617Z,19.20
2022-07-30T04:51:55.854Z,19.23
2022-07-30T04:54:34.085Z,19.26
2022-07-30T04:57:08.022Z,19.30
2022-07-30T04:59:40.367Z,19.26
2022-07-30T05:02:14.099Z,19.25
2022-07-30T05:04:47.263Z,19.39
2022-07-30T05:07:22.568Z,19.46
2022-07-30T05:09:54.745Z,19.43
2022-07-30T05:12:37.548Z,19.51
2022-07-30T05:15:09.547Z,19.55
2022-07-30T05:17:41.478Z,19.44
2022-07-30T05:20:14.784Z,19.52
2022-07-30T05:23:23.402Z,19.65
2022-07-30T05:26:27.639Z,19.61
2022-07-30T05:29:00.505Z,19.58
2022-07-30T05:31:47.185Z,19.66
2022-07-30T05:34:20.187Z,19.76
2022-07-30T05:36:52.220Z,19.83
2022-07-30T05:39:24.601Z,19.86
2022-07-30T05:42:22.654Z,19.90
2022-07-30T05:44:57.055Z,19.87
2022-07-30T05:47:28.913Z,19.94
2022-07-30T05:50:04.765Z,19.98
2022-07-30T05:52:37.070Z,19.99
2022-07-30T05:55:23.525Z,19.97
2022-07-30T05:58:08.617Z,19.99
2022-07-30T06:00:40.556Z,19.99
2022-07-30T06:03:12.854Z,20.10
2022-07-30T06:06:03.572Z,20.16
2022-07-30T06:08:35.852Z,20.08
2022-07-30T06:11:08.969Z,20.15
2022-07-30T06:13:41.518Z,20.21
2022-07-30T06:16:13.793Z,20.25
2022-07-30T06:18:45.609Z,20.29
2022-07-30T06:21:26.784Z,20.40
2022-07-30T06:24:10.148Z,20.43
2022-07-30T06:26:46.194Z,20.36
2022-07-30T06:29:20.105Z,20.30
2022-07-30T06:31:52.906Z,20.45
2022-07-30T06:34:26.675Z,20.50
2022-07-30T06:36:59.226Z,20.56
2022-07-30T06:39:56.623Z,20.52
2022-07-30T06:42:24.634Z,20.57
2022-07-30T06:45:15.284Z,20.58
2022-07-30T06:48:09.271Z,20.68
2022-07-30T06:50:41.934Z,20.70
2022-07-30T06:53:13.730Z,20.62
2022-07-30T06:56:04.623Z,20.55
2022-07-30T06:58:44.601Z,20.73
2022-07-30T07:01:36.991Z,20.80
2022-07-30T07:04:09.383Z,20.90
2022-07-30T07:06:43.102Z,21.03
2022-07-30T07:09:15.756Z,21.10
2022-07-30T07:11:55.046Z,21.19
2022-07-30T07:14:27.889Z,21.31
2022-07-30T07:17:00.141Z,21.52
2022-07-30T07:20:01.647Z,21.57
2022-07-30T07:22:38.163Z,21.78
2022-07-30T07:25:11.600Z,21.88
2022-07-30T07:27:43.607Z,21.70
2022-07-30T07:30:35.875Z,21.85
2022-07-30T07:33:08.764Z,22.01
2022-07-30T07:35:49.167Z,22.17
2022-07-30T07:38:25.761Z,22.29
2022-07-30T07:40:56.877Z,22.36
2022-07-30T07:43:28.941Z,22.06
2022-07-30T07:46:02.537Z,22.30
2022-07-30T07:48:36.149Z,22.41
2022-07-30T07:51:47.458Z,22.38
2022-07-30T07:54:22.498Z,22.35
2022-07-30T07:56:56.992Z,22.53
2022-07-30T07:59:40.592Z,22.63
2022-07-30T08:02:18.268Z,22.57
2022-07-30T08:05:12.516Z,22.60
2022-07-30T08:07:55.099Z,22.32
2022-07-30T08:10:36.374Z,22.39
2022-07-30T08:13:52.064Z,22.51
2022-07-30T08:16:43.235Z,22.51
2022-07-30T08:19:25.951Z,22.48
2022-07-30T08:22:20.749Z,22.72
2022-07-30T08:24:52.698Z,22.68
2022-07-30T08:27:24.535Z,22.39
2022-07-30T08:29:58.640Z,22.61
2022-07-30T08:32:30.567Z,22.84
2022-07-30T08:35:04.040Z,22.89
2022-07-30T08:37:36.622Z,23.07
2022-07-30T08:40:11.589Z,23.14
2022-07-30T08:42:53.785Z,23.23
2022-07-30T08:45:34.849Z,23.25
2022-07-30T08:48:26.432Z,23.18
2022-07-30T08:50:59.594Z,23.34
2022-07-30T08:53:50.291Z,23.57
2022-07-30T08:56:22.535Z,23.51
2022-07-30T08:58:54.598Z,23.62
2022-07-30T09:01:26.855Z,23.43
2022-07-30T09:04:01.177Z,23.62
2022-07-30T09:06:33.108Z,23.61
2022-07-30T09:09:06.595Z,23.78
2022-07-30T09:11:39.650Z,23.93
2022-07-30T09:14:12.661Z,23.82
2022-07-30T09:16:44.907Z,23.77
2022-07-30T09:19:19.400Z,23.87
2022-07-30T09:21:59.886Z,23.91
2022-07-30T09:24:54.834Z,24.09
2022-07-30T09:27:51.307Z,23.99
2022-07-30T09:30:50.921Z,24.06
2022-07-30T09:33:42.792Z,24.22
2022-07-30T09:36:35.194Z,24.29
2022-07-30T09:39:34.925Z,24.39
2022-07-30T09:42:32.060Z,24.34
2022-07-30T09:45:11.441Z,24.14
2022-07-30T09:47:48.537Z,24.26
2022-07-30T09:50:30.553Z,24.34
2022-07-30T09:53:12.255Z,24.28
2022-07-30T09:55:46.064Z,24.32
2022-07-30T10:01:11.666Z,24.42
2022-07-30T10:03:58.571Z,24.44
2022-07-30T10:06:53.900Z,24.32
2022-07-30T10:09:37.771Z,24.26
2022-07-30T10:12:14.597Z,24.34
2022-07-30T10:14:54.263Z,24.16
2022-07-30T10:17:26.733Z,24.25
2022-07-30T10:20:21.468Z,24.33
2022-07-30T10:23:15.835Z,24.29
2022-07-30T10:26:07.953Z,24.10
2022-07-30T10:28:59.167Z,24.11
2022-07-30T10:31:49.333Z,24.32
2022-07-30T10:34:23.568Z,24.36
2022-07-30T10:37:04.720Z,24.54
2022-07-30T10:39:47.137Z,24.56
2022-07-30T10:42:30.170Z,24.42
2022-07-30T10:45:18.405Z,24.54
2022-07-30T10:47:57.582Z,24.55
2022-07-30T10:50:31.033Z,24.59
2022-07-30T10:53:04.384Z,24.69
2022-07-30T10:55:37.129Z,24.77
2022-07-30T10:58:15.856Z,24.78
2022-07-30T11:01:04.126Z,24.69
2022-07-30T11:03:40.644Z,24.47
2022-07-30T11:06:29.720Z,24.40
2022-07-30T11:09:01.971Z,24.32
2022-07-30T11:12:02.038Z,24.11
2022-07-30T11:15:07.176Z,24.17
2022-07-30T11:18:12.649Z,24.05
2022-07-30T11:21:05.989Z,24.05
2022-07-30T11:23:42.994Z,24.09
2022-07-30T11:26:51.732Z,23.98
2022-07-30T11:29:50.954Z,23.98
2022-07-30T11:32:32.562Z,23.96
2022-07-30T11:35:20.422Z,23.90
2022-07-30T11:38:10.400Z,23.95
2022-07-30T11:41:12.016Z,24.04
2022-07-30T11:43:44.112Z,23.96
2022-07-30T11:46:18.019Z,23.80
2022-07-30T11:49:04.759Z,23.66
2022-07-30T11:51:44.448Z,23.70
2022-07-30T11:54:16.661Z,23.67
2022-07-30T11:57:03.652Z,23.71
2022-07-30T11:59:55.893Z,23.73
2022-07-30T12:02:30.993Z,23.70
2022-07-30T12:05:04.454Z,23.74
2022-07-30T12:07:36.329Z,23.70
2022-07-30T12:10:26.789Z,23.67
2022-07-30T12:13:13.022Z,23.65
2022-07-30T12:15:47.873Z,23.70
2022-07-30T12:18:28.920Z,23.66
2022-07-30T12:21:02.167Z,23.58
2022-07-30T12:23:34.298Z,23.47
2022-07-30T12:26:06.699Z,23.39
2022-07-30T12:28:39.891Z,23.34
2022-07-30T12:31:16.011Z,23.20
2022-07-30T12:33:48.548Z,23.10
2022-07-30T12:36:31.905Z,22.88
2022-07-30T12:39:06.772Z,22.80
2022-07-30T12:41:47.141Z,22.52
2022-07-30T12:44:37.068Z,22.46
2022-07-30T12:47:22.081Z,22.45
2022-07-30T12:49:54.628Z,22.36
2022-07-30T12:52:28.648Z,22.39
2022-07-30T12:55:07.153Z,22.22
2022-07-30T12:57:57.959Z,22.19
2022-07-30T13:00:31.589Z,22.09
2022-07-30T13:03:03.266Z,22.12
2022-07-30T13:05:51.949Z,21.98
2022-07-30T13:08:51.213Z,21.97
2022-07-30T13:11:25.287Z,21.78
2022-07-30T13:13:57.022Z,21.71
2022-07-30T13:16:34.875Z,21.75
2022-07-30T13:19:11.340Z,21.60
2022-07-30T13:21:49.689Z,21.62
2022-07-30T13:24:22.446Z,21.56
2022-07-30T13:26:54.180Z,21.40
2022-07-30T13:29:26.067Z,21.33
2022-07-30T13:31:57.720Z,21.46
2022-07-30T13:34:29.444Z,21.47
2022-07-30T13:37:01.343Z,21.33
2022-07-30T13:39:33.173Z,21.33
2022-07-30T13:42:05.125Z,21.15
2022-07-30T13:44:36.927Z,20.98
2022-07-30T13:47:09.863Z,21.04
2022-07-30T13:49:49.354Z,21.06
2022-07-30T13:52:21.086Z,21.14
2022-07-30T13:54:53.741Z,21.07
2022-07-30T13:57:23.945Z,21.05
2022-07-30T13:59:55.673Z,21.00
2022-07-30T14:02:27.915Z,20.92
2022-07-30T14:04:59.986Z,20.90
2022-07-30T14:07:31.792Z,20.80
2022-07-30T14:10:04.643Z,20.80
2022-07-30T14:12:37.862Z,20.68
2022-07-30T14:15:17.426Z,20.85
2022-07-30T14:17:56.130Z,20.84
2022-07-30T14:20:30.460Z,20.95
2022-07-30T14:23:02.258Z,21.03
2022-07-30T14:25:34.298Z,21.10
2022-07-30T14:28:06.503Z,20.93
2022-07-30T14:30:38.408Z,20.83
2022-07-30T14:33:10.316Z,20.93
2022-07-30T14:35:42.271Z,21.06
2022-07-30T14:38:13.972Z,21.14
2022-07-30T14:40:46.935Z,21.15
2022-07-30T14:43:19.658Z,21.04
2022-07-30T14:45:52.887Z,21.05
2022-07-30T14:48:26.396Z,20.98
2022-07-30T14:51:15.868Z,20.54
2022-07-30T14:53:50.706Z,20.33
2022-07-30T14:56:24.032Z,20.29
2022-07-30T14:58:55.693Z,20.28
2022-07-30T15:01:27.505Z,20.05
2022-07-30T15:03:59.663Z,20.14
2022-07-30T15:06:32.098Z,20.23
2022-07-30T15:09:03.835Z,20.17
2022-07-30T15:12:04.276Z,20.14
2022-07-30T15:14:28.424Z,20.40
2022-07-30T15:17:04.310Z,20.48
2022-07-30T15:19:36.447Z,20.53
2022-07-30T15:22:09.201Z,20.54
2022-07-30T15:24:39.587Z,20.71
2022-07-30T15:27:11.685Z,20.61
2022-07-30T15:29:44.458Z,20.72
2022-07-30T15:32:16.843Z,20.90
2022-07-30T15:34:48.553Z,20.75
2022-07-30T15:37:20.317Z,20.62
2022-07-30T15:39:52.287Z,20.78
2022-07-30T15:42:27.421Z,20.75
2022-07-30T15:45:16.851Z,20.90
2022-07-30T15:47:50.392Z,20.77
2022-07-30T15:50:22.325Z,20.49
2022-07-30T15:52:54.421Z,20.57
2022-07-30T15:55:27.022Z,20.77
2022-07-30T15:57:57.689Z,20.86
2022-07-30T16:00:29.906Z,20.86
2022-07-30T16:03:03.150Z,20.90
2022-07-30T16:05:51.617Z,20.90
2022-07-30T16:08:24.557Z,20.63
2022-07-30T16:10:56.675Z,20.60
2022-07-30T16:13:29.182Z,20.51
2022-07-30T16:16:01.157Z,20.43
2022-07-30T16:18:33.614Z,20.23
2022-07-30T16:21:06.163Z,20.06
2022-07-30T16:23:39.527Z,19.93
2022-07-30T16:26:11.878Z,19.90
2022-07-30T16:28:43.900Z,19.98
2022-07-30T16:31:16.400Z,19.95
2022-07-30T16:33:48.591Z,19.87
2022-07-30T16:36:19.518Z,20.11
2022-07-30T16:38:51.441Z,20.13
2022-07-30T16:41:24.148Z,20.38
2022-07-30T16:43:56.874Z,20.34
2022-07-30T16:46:29.601Z,20.58
2022-07-30T16:49:01.478Z,20.46
2022-07-30T16:51:33.652Z,20.60
2022-07-30T16:54:07.585Z,20.54
2022-07-30T16:56:39.243Z,20.51
2022-07-30T16:59:13.809Z,20.71
2022-07-30T17:01:45.860Z,20.78
2022-07-30T17:04:17.770Z,20.74
2022-07-30T17:06:51.512Z,20.72
2022-07-30T17:09:23.271Z,20.70
2022-07-30T17:11:55.033Z,20.44
2022-07-30T17:14:31.145Z,20.39
2022-07-30T17:17:03.211Z,20.28
2022-07-30T17:19:34.821Z,20.19
2022-07-30T17:22:08.558Z,19.97
2022-07-30T17:24:40.567Z,19.92
2022-07-30T17:27:12.363Z,19.78
2022-07-30T17:29:50.192Z,19.94
2022-07-30T17:32:23.395Z,20.01
2022-07-30T17:34:55.966Z,20.14
2022-07-30T17:37:27.690Z,20.48
2022-07-30T17:40:28.257Z,20.35
2022-07-30T17:42:51.359Z,20.25
2022-07-30T17:45:23.263Z,19.98
2022-07-30T17:47:55.107Z,19.91
2022-07-30T17:50:27.199Z,19.85
2022-07-30T17:52:59.148Z,20.32
2022-07-30T17:55:34.852Z,20.66
2022-07-30T17:58:07.610Z,20.97
2022-07-30T18:00:41.207Z,21.20
2022-07-30T18:03:12.932Z,21.41
2022-07-30T18:05:44.823Z,21.32
2022-07-30T18:08:16.582Z,21.30
2022-07-30T18:10:48.457Z,21.40
2022-07-30T18:13:27.061Z,21.49
2022-07-30T18:15:59.448Z,21.55
2022-07-30T18:18:31.444Z,21.38
2022-07-30T18:21:03.945Z,20.96
2022-07-30T18:23:36.281Z,21.28
2022-07-30T18:26:10.639Z,21.44
2022-07-30T18:28:43.422Z,21.08
2022-07-30T18:31:15.607Z,21.05
2022-07-30T18:33:49.465Z,21.32
2022-07-30T18:36:21.608Z,20.72
2022-07-30T18:38:54.040Z,20.29
2022-07-30T18:41:24.703Z,20.08
2022-07-30T18:43:56.996Z,20.01
2022-07-30T18:46:28.625Z,19.58
2022-07-30T18:49:15.456Z,19.32
2022-07-30T18:51:54.584Z,19.18
2022-07-30T18:54:28.924Z,19.15
2022-07-30T18:57:01.350Z,19.21
2022-07-30T18:59:34.538Z,19.17
2022-07-30T19:02:08.361Z,19.50
2022-07-30T19:04:40.913Z,19.32
2022-07-30T19:07:14.386Z,19.24
2022-07-30T19:09:46.840Z,19.32
2022-07-30T19:12:20.394Z,19.40
2022-07-30T19:14:52.990Z,19.27
2022-07-30T19:17:45.202Z,19.29
2022-07-30T19:20:16.784Z,19.29
2022-07-30T19:22:50.350Z,19.25
2022-07-30T19:25:23.129Z,19.09
2022-07-30T19:27:55.320Z,19.09
2022-07-30T19:30:28.252Z,19.21
2022-07-30T19:33:05.748Z,19.47
2022-07-30T19:35:37.817Z,19.57
2022-07-30T19:38:14.323Z,19.49
2022-07-30T19:40:53.986Z,20.00
2022-07-30T19:43:25.736Z,19.49
2022-07-30T19:46:00.459Z,19.07
2022-07-30T19:48:36.073Z,19.36
2022-07-30T19:51:20.747Z,19.54
2022-07-30T19:53:53.124Z,19.59
2022-07-30T19:56:25.924Z,19.41
2022-07-30T19:58:57.471Z,19.68
2022-07-30T20:01:41.301Z,20.20
2022-07-30T20:04:14.298Z,19.58
2022-07-30T20:06:46.439Z,19.45
2022-07-30T20:09:18.655Z,19.33
2022-07-30T20:11:51.014Z,19.07
2022-07-30T20:14:23.978Z,19.51
2022-07-30T20:16:58.183Z,19.84
2022-07-30T20:19:36.145Z,19.81
2022-07-30T20:22:29.063Z,20.50
2022-07-30T20:25:02.669Z,20.83
2022-07-30T20:27:38.730Z,20.50
2022-07-30T20:30:13.867Z,19.90
2022-07-30T20:32:47.016Z,20.65
2022-07-30T20:35:19.933Z,20.72
2022-07-30T20:37:55.318Z,20.32
2022-07-30T20:40:28.609Z,19.79
2022-07-30T20:43:02.402Z,19.64
2022-07-30T20:45:37.999Z,19.47
2022-07-30T20:48:16.922Z,19.35
2022-07-30T20:50:49.463Z,19.57
2022-07-30T20:53:23.079Z,19.64
2022-07-30T20:55:55.131Z,19.75
2022-07-30T20:58:26.949Z,20.43
2022-07-30T21:00:59.632Z,20.24
2022-07-30T21:03:31.747Z,20.68
2022-07-30T21:06:02.494Z,20.86
2022-07-30T21:08:34.185Z,21.04
2022-07-30T21:11:06.490Z,20.91
2022-07-30T21:13:42.648Z,21.20
2022-07-30T21:16:16.398Z,21.26
2022-07-30T21:18:50.933Z,21.26
2022-07-30T21:21:30.815Z,21.39
2022-07-30T21:24:15.363Z,21.27
2022-07-30T21:26:50.614Z,20.84
2022-07-30T21:29:23.034Z,20.14
2022-07-30T21:32:01.864Z,19.85
2022-07-30T21:34:41.954Z,19.66
2022-07-30T21:37:15.740Z,19.46
2022-07-30T21:39:47.878Z,19.30
2022-07-30T21:42:26.092Z,19.11
2022-07-30T21:45:02.853Z,19.05
2022-07-30T21:47:33.397Z,18.97
2022-07-30T21:50:05.694Z,18.91
2022-07-30T21:52:40.936Z,18.92
2022-07-30T21:55:13.750Z,18.82
2022-07-30T21:57:45.421Z,18.65
2022-07-30T22:00:22.918Z,18.44
2022-07-30T22:02:55.699Z,18.41
2022-07-30T22:05:38.782Z,18.26
2022-07-30T22:08:13.285Z,18.40
2022-07-30T22:10:48.575Z,18.41
2022-07-30T22:13:23.250Z,18.34
2022-07-30T22:15:55.459Z,18.44
2022-07-30T22:18:27.155Z,18.26
2022-07-30T22:20:59.098Z,18.10
2022-07-30T22:23:30.753Z,18.07
2022-07-30T22:26:03.293Z,18.14
2022-07-30T22:28:35.722Z,18.10
2022-07-30T22:31:14.914Z,18.02
2022-07-30T22:33:49.784Z,18.10
2022-07-30T22:36:24.683Z,18.25
2022-07-30T22:38:58.740Z,18.30
2022-07-30T22:41:30.959Z,18.21
2022-07-30T22:44:02.646Z,18.15
2022-07-30T22:46:35.575Z,18.17
2022-07-30T22:49:08.824Z,18.06
2022-07-30T22:52:20.922Z,17.87
2022-07-30T22:54:50.925Z,17.84
2022-07-30T22:57:23.497Z,17.83
2022-07-30T23:00:00.246Z,17.86
2022-07-30T23:02:32.758Z,17.82
2022-07-30T23:05:06.361Z,17.92
2022-07-30T23:07:39.591Z,17.86
2022-07-30T23:10:18.660Z,17.79
2022-07-30T23:12:53.697Z,17.89
2022-07-30T23:15:25.621Z,17.86
2022-07-30T23:17:57.387Z,17.79
2022-07-30T23:20:32.013Z,17.73
2022-07-30T23:23:04.957Z,17.77
2022-07-30T23:25:39.123Z,17.89
2022-07-30T23:28:11.552Z,17.91
2022-07-30T23:30:43.365Z,17.93
2022-07-30T23:33:16.064Z,17.93
2022-07-30T23:35:48.582Z,18.00
2022-07-30T23:38:20.300Z,18.01
2022-07-30T23:40:52.460Z,18.06
2022-07-30T23:43:24.587Z,18.03
2022-07-30T23:45:56.312Z,18.01
2022-07-30T23:48:28.149Z,17.97
2022-07-30T23:50:59.814Z,17.91
2022-07-30T23:53:31.512Z,17.92
2022-07-30T23:56:03.481Z,17.99
2022-07-30T23:58:35.290Z,17.88
